Saturday, January 31, 2015
14:36 UTC
  |  Log In   |  Register Free
Airport Search:

Mccarley Fld Airport
(U02)

Mccarley Fld Airport Diagram
No Airport Diagram Available

FAA data valid effective January 08, 2015 - March 05, 2015 (unless otherwise noted).

 
 
 
 
 
 
 
 
 
 
 
 
 
 

Current Aviation Weather for Mccarley Fld Airport (U02)

METAR data is unavailable for U02. The nearest METAR location is at KPIH (21 nm SW from U02).

The most recent METAR observation for KPIH was updated at: 1414
METAR Summary (Translated METAR)
KPIH
311357Z 25006KT 10SM OVC009 M01/M01 A3010 RMK AO2 CIG 007V012 T10061011
(21 nm SW from U02)
KIDA
311353Z 23007KT 10SM OVC008 M02/M03 A3007 RMK AO2 CIG 006V012 SLP208 T10171028
(22 nm NE from U02)
TAF Summary (Translated TAF)
KPIH
311123Z 3112/0112 24010KT P6SM OVC018 FM311800 24008KT P6SM SCT025
KIDA
(42.9 nm NE from KPIH)
311123Z 3112/0112 21009KT P6SM OVC005 FM311700 24007KT P6SM OVC012 FM312200 23008KT P6SM SCT025
  Airport Weather Conditions for U02

Current weather conditions are
not available for U02


The nearest NOAA weather station
is at PIH, (21 nm SW from U02)
  
 Current Weather at PIH
31° F
Overcast
West winds at 6.9 mph
PIH NOAA Radar

Pressure: 30.10 in
Humidity: 96%
Wind: West at 6.9 MPH (6 KT)
Dew Point: 30.0°F
Visibility: 10.00 mi


Airport Weather Forecast for U02

Translated METAR and TAF for KPIH
Translated METAR for KPIH (1437 UTC 31 January 2015)
found at http://aviationweather.gov/adds/metars/
 
METAR text: KPIH 311357Z 25006KT 10SM OVC009 M01/M01 A3010 RMK AO2 CIG 007V012 T10061011
Conditions at: KPIH (POCATELLO , ID, US) observed 1357 UTC 31 January 2015
Temperature: -0.6°C (31°F)
Dewpoint: -1.1°C (30°F) [RH = 96%]
Pressure (altimeter): 30.10 inches Hg (1019.4 mb)
Winds: from the WSW (250 degrees) at 7 MPH (6 knots; 3.1 m/s)
Visibility: 10 or more miles (16+ km)
Ceiling: 900 feet AGL
Clouds: overcast cloud deck at 900 feet AGL
Weather: no significant weather observed at this time
Translated TAF for KPIH
Forecast for: KPIH (POCATELLO , ID, US)
TAF Text: KPIH 311123Z 3112/0112 24010KT P6SM OVC018
Forecast period: 1200 to 1800 UTC 31 January 2015
Forecast type: FROM: standard forecast or significant change
Winds: from the WSW (240 degrees) at 12 MPH (10 knots; 5.2 m/s)
Visibility: 6 or more miles (10+ km)
Ceiling: 1800 feet AGL
Clouds: overcast cloud deck at 1800 feet AGL
Weather: no significant weather forecast for this period
TAF Text: FM311800 24008KT P6SM SCT025
Forecast period: 1800 UTC 31 January 2015 to 1200 UTC 01 February 2015
Forecast type: FROM: standard forecast or significant change
Winds: from the WSW (240 degrees) at 9 MPH (8 knots; 4.2 m/s)
Visibility: 6 or more miles (10+ km)
Clouds: scattered clouds at 2500 feet AGL
Weather: no significant weather forecast for this period

Find All Airport Services Find A Hotel Find A Rental Car Find A Golf Course Find A Restaurant $100 Hamburger



FBO's on the Field
FBO Company Facility Photos Services Transportation Aviation Fuel Prices: Prices include tax
Catering Weather Repair Courtesy Rental Type 100LL JetA JetA+ MOGAS 8087
 
City of Blackfoot

This FBO has not yet been rated
FS:Independent
Last Updated: Jan-29
Login to update fuel prices
SS:
Contact City of BlackfootMore FBO Information
 
Add another FBO Facility Photos Catering Weather Repair Courtesy Rental Type 100LL JetA JetA+ MOGAS 8087
Services Transportation Aviation Fuel Prices: Prices include tax


model-print
model-print
model-print
model-print